sensor_id;sensor_type;location;lat;lon;timestamp;P1;durP1;ratioP1;P2;durP2;ratioP2
24044;SDS011;26257;49.442;8.422;2022-07-23T00:03:32;10.13;;;7.00;;
24044;SDS011;26257;49.442;8.422;2022-07-23T00:05:57;9.75;;;7.00;;
24044;SDS011;26257;49.442;8.422;2022-07-23T00:08:22;9.82;;;6.75;;
24044;SDS011;26257;49.442;8.422;2022-07-23T00:10:49;11.43;;;7.30;;
24044;SDS011;26257;49.442;8.422;2022-07-23T00:13:15;11.65;;;7.60;;
24044;SDS011;26257;49.442;8.422;2022-07-23T00:15:40;11.27;;;7.43;;
24044;SDS011;26257;49.442;8.422;2022-07-23T00:18:06;9.73;;;7.32;;
24044;SDS011;26257;49.442;8.422;2022-07-23T00:20:32;12.20;;;7.18;;
24044;SDS011;26257;49.442;8.422;2022-07-23T00:22:58;9.93;;;7.05;;
24044;SDS011;26257;49.442;8.422;2022-07-23T00:25:26;10.90;;;7.47;;
24044;SDS011;26257;49.442;8.422;2022-07-23T00:31:08;10.95;;;7.03;;
24044;SDS011;26257;49.442;8.422;2022-07-23T00:33:57;13.98;;;7.22;;
24044;SDS011;26257;49.442;8.422;2022-07-23T00:36:44;9.85;;;6.97;;
24044;SDS011;26257;49.442;8.422;2022-07-23T00:39:36;11.35;;;7.00;;
24044;SDS011;26257;49.442;8.422;2022-07-23T00:42:06;8.98;;;6.90;;
24044;SDS011;26257;49.442;8.422;2022-07-23T00:44:42;11.27;;;7.03;;
24044;SDS011;26257;49.442;8.422;2022-07-23T00:47:11;12.43;;;7.60;;
24044;SDS011;26257;49.442;8.422;2022-07-23T00:50:11;9.25;;;6.75;;
24044;SDS011;26257;49.442;8.422;2022-07-23T00:52:37;11.90;;;6.88;;
24044;SDS011;26257;49.442;8.422;2022-07-23T00:55:05;9.18;;;7.03;;
24044;SDS011;26257;49.442;8.422;2022-07-23T00:57:33;12.27;;;6.28;;
24044;SDS011;26257;49.442;8.422;2022-07-23T01:00:00;13.70;;;7.40;;
24044;SDS011;26257;49.442;8.422;2022-07-23T01:02:44;15.03;;;7.47;;
24044;SDS011;26257;49.442;8.422;2022-07-23T01:05:17;12.70;;;7.10;;
24044;SDS011;26257;49.442;8.422;2022-07-23T01:07:48;9.77;;;6.73;;
24044;SDS011;26257;49.442;8.422;2022-07-23T01:10:15;11.63;;;7.15;;
24044;SDS011;26257;49.442;8.422;2022-07-23T01:15:42;10.30;;;6.53;;
24044;SDS011;26257;49.442;8.422;2022-07-23T01:18:09;10.57;;;7.18;;
24044;SDS011;26257;49.442;8.422;2022-07-23T01:20:36;12.10;;;7.20;;
24044;SDS011;26257;49.442;8.422;2022-07-23T01:23:02;10.38;;;6.97;;
24044;SDS011;26257;49.442;8.422;2022-07-23T01:25:27;8.90;;;6.85;;
24044;SDS011;26257;49.442;8.422;2022-07-23T01:27:55;9.73;;;7.22;;
24044;SDS011;26257;49.442;8.422;2022-07-23T01:30:26;10.00;;;7.50;;
24044;SDS011;26257;49.442;8.422;2022-07-23T01:33:02;9.75;;;6.95;;
24044;SDS011;26257;49.442;8.422;2022-07-23T01:35:28;10.02;;;7.25;;
24044;SDS011;26257;49.442;8.422;2022-07-23T01:37:54;10.73;;;6.90;;
24044;SDS011;26257;49.442;8.422;2022-07-23T01:40:19;10.23;;;6.78;;
24044;SDS011;26257;49.442;8.422;2022-07-23T01:42:47;12.50;;;8.10;;
24044;SDS011;26257;49.442;8.422;2022-07-23T01:48:28;10.52;;;7.00;;
24044;SDS011;26257;49.442;8.422;2022-07-23T01:51:10;10.60;;;7.00;;
24044;SDS011;26257;49.442;8.422;2022-07-23T02:14:16;11.18;;;7.43;;
24044;SDS011;26257;49.442;8.422;2022-07-23T02:16:42;13.05;;;7.63;;
24044;SDS011;26257;49.442;8.422;2022-07-23T02:19:07;11.90;;;7.63;;
24044;SDS011;26257;49.442;8.422;2022-07-23T02:21:33;12.25;;;7.72;;
24044;SDS011;26257;49.442;8.422;2022-07-23T02:23:59;13.57;;;7.55;;
24044;SDS011;26257;49.442;8.422;2022-07-23T02:26:24;10.27;;;6.88;;
24044;SDS011;26257;49.442;8.422;2022-07-23T02:28:50;9.88;;;7.53;;
24044;SDS011;26257;49.442;8.422;2022-07-23T02:31:15;10.15;;;6.97;;
24044;SDS011;26257;49.442;8.422;2022-07-23T02:33:41;10.98;;;7.38;;
24044;SDS011;26257;49.442;8.422;2022-07-23T02:36:10;12.75;;;7.40;;
24044;SDS011;26257;49.442;8.422;2022-07-23T02:38:35;10.65;;;7.55;;
24044;SDS011;26257;49.442;8.422;2022-07-23T02:41:01;9.95;;;7.22;;
24044;SDS011;26257;49.442;8.422;2022-07-23T02:43:26;12.00;;;7.53;;
24044;SDS011;26257;49.442;8.422;2022-07-23T02:45:52;11.18;;;7.38;;
24044;SDS011;26257;49.442;8.422;2022-07-23T02:48:17;17.17;;;7.25;;
24044;SDS011;26257;49.442;8.422;2022-07-23T02:50:43;11.50;;;7.22;;
24044;SDS011;26257;49.442;8.422;2022-07-23T02:53:08;10.27;;;7.30;;
24044;SDS011;26257;49.442;8.422;2022-07-23T02:55:34;10.80;;;7.45;;
24044;SDS011;26257;49.442;8.422;2022-07-23T02:58:02;10.75;;;7.65;;
24044;SDS011;26257;49.442;8.422;2022-07-23T03:00:28;10.40;;;7.82;;
24044;SDS011;26257;49.442;8.422;2022-07-23T03:02:57;15.48;;;8.20;;
24044;SDS011;26257;49.442;8.422;2022-07-23T03:10:36;12.55;;;7.63;;
24044;SDS011;26257;49.442;8.422;2022-07-23T03:13:05;10.07;;;6.63;;
24044;SDS011;26257;49.442;8.422;2022-07-23T03:15:33;9.57;;;6.80;;
24044;SDS011;26257;49.442;8.422;2022-07-23T03:18:02;11.52;;;7.43;;
24044;SDS011;26257;49.442;8.422;2022-07-23T03:20:28;11.38;;;7.53;;
24044;SDS011;26257;49.442;8.422;2022-07-23T03:22:53;10.40;;;7.57;;
24044;SDS011;26257;49.442;8.422;2022-07-23T03:25:22;11.30;;;7.93;;
24044;SDS011;26257;49.442;8.422;2022-07-23T03:28:11;10.10;;;7.32;;
24044;SDS011;26257;49.442;8.422;2022-07-23T03:35:47;12.00;;;7.70;;
24044;SDS011;26257;49.442;8.422;2022-07-23T03:38:13;10.55;;;8.50;;
24044;SDS011;26257;49.442;8.422;2022-07-23T03:40:39;13.35;;;8.05;;
24044;SDS011;26257;49.442;8.422;2022-07-23T03:43:05;14.02;;;9.65;;
24044;SDS011;26257;49.442;8.422;2022-07-23T03:45:30;20.10;;;12.27;;
24044;SDS011;26257;49.442;8.422;2022-07-23T03:47:56;17.33;;;10.88;;
24044;SDS011;26257;49.442;8.422;2022-07-23T03:50:22;14.10;;;8.80;;
24044;SDS011;26257;49.442;8.422;2022-07-23T03:52:47;12.65;;;8.00;;
24044;SDS011;26257;49.442;8.422;2022-07-23T03:55:13;14.88;;;8.18;;
24044;SDS011;26257;49.442;8.422;2022-07-23T03:57:38;12.50;;;7.78;;
24044;SDS011;26257;49.442;8.422;2022-07-23T04:00:06;12.32;;;8.48;;
24044;SDS011;26257;49.442;8.422;2022-07-23T04:02:34;11.63;;;8.50;;
24044;SDS011;26257;49.442;8.422;2022-07-23T04:05:00;12.82;;;8.23;;
24044;SDS011;26257;49.442;8.422;2022-07-23T04:07:25;14.60;;;8.73;;
24044;SDS011;26257;49.442;8.422;2022-07-23T04:09:51;11.77;;;8.68;;
24044;SDS011;26257;49.442;8.422;2022-07-23T04:12:17;12.13;;;8.40;;
24044;SDS011;26257;49.442;8.422;2022-07-23T04:14:42;11.27;;;8.73;;
24044;SDS011;26257;49.442;8.422;2022-07-23T04:17:08;12.60;;;8.43;;
24044;SDS011;26257;49.442;8.422;2022-07-23T04:19:33;11.68;;;7.82;;
24044;SDS011;26257;49.442;8.422;2022-07-23T04:22:01;12.65;;;8.80;;
24044;SDS011;26257;49.442;8.422;2022-07-23T04:24:27;12.45;;;8.32;;
24044;SDS011;26257;49.442;8.422;2022-07-23T04:26:52;11.93;;;8.80;;
24044;SDS011;26257;49.442;8.422;2022-07-23T04:29:18;13.15;;;8.68;;
24044;SDS011;26257;49.442;8.422;2022-07-23T04:31:43;12.57;;;8.85;;
24044;SDS011;26257;49.442;8.422;2022-07-23T04:34:08;11.05;;;8.52;;
24044;SDS011;26257;49.442;8.422;2022-07-23T04:36:34;12.10;;;8.90;;
24044;SDS011;26257;49.442;8.422;2022-07-23T04:38:59;12.48;;;9.93;;
24044;SDS011;26257;49.442;8.422;2022-07-23T04:41:25;11.27;;;8.95;;
24044;SDS011;26257;49.442;8.422;2022-07-23T04:43:50;13.25;;;8.43;;
24044;SDS011;26257;49.442;8.422;2022-07-23T04:46:15;18.15;;;11.20;;
24044;SDS011;26257;49.442;8.422;2022-07-23T04:48:41;17.63;;;12.38;;
24044;SDS011;26257;49.442;8.422;2022-07-23T04:51:07;12.93;;;8.90;;
24044;SDS011;26257;49.442;8.422;2022-07-23T04:53:32;13.48;;;9.20;;
24044;SDS011;26257;49.442;8.422;2022-07-23T04:55:58;12.18;;;8.98;;
24044;SDS011;26257;49.442;8.422;2022-07-23T04:58:23;13.55;;;10.32;;
24044;SDS011;26257;49.442;8.422;2022-07-23T05:00:49;11.68;;;9.38;;
24044;SDS011;26257;49.442;8.422;2022-07-23T05:03:14;13.70;;;10.07;;
24044;SDS011;26257;49.442;8.422;2022-07-23T05:05:40;11.63;;;9.18;;
24044;SDS011;26257;49.442;8.422;2022-07-23T05:08:06;14.68;;;10.20;;
24044;SDS011;26257;49.442;8.422;2022-07-23T05:10:31;17.70;;;10.82;;
24044;SDS011;26257;49.442;8.422;2022-07-23T05:12:56;15.23;;;10.70;;
24044;SDS011;26257;49.442;8.422;2022-07-23T05:15:22;14.10;;;10.98;;
24044;SDS011;26257;49.442;8.422;2022-07-23T05:17:48;18.35;;;10.20;;
24044;SDS011;26257;49.442;8.422;2022-07-23T05:20:13;13.18;;;9.80;;
24044;SDS011;26257;49.442;8.422;2022-07-23T05:22:39;11.52;;;9.60;;
24044;SDS011;26257;49.442;8.422;2022-07-23T05:25:04;15.63;;;10.40;;
24044;SDS011;26257;49.442;8.422;2022-07-23T05:27:30;15.80;;;11.07;;
24044;SDS011;26257;49.442;8.422;2022-07-23T05:29:56;14.13;;;10.73;;
24044;SDS011;26257;49.442;8.422;2022-07-23T05:37:50;15.07;;;10.75;;
24044;SDS011;26257;49.442;8.422;2022-07-23T05:40:17;14.60;;;10.80;;
24044;SDS011;26257;49.442;8.422;2022-07-23T05:42:43;16.15;;;10.27;;
24044;SDS011;26257;49.442;8.422;2022-07-23T05:45:08;14.77;;;10.57;;
24044;SDS011;26257;49.442;8.422;2022-07-23T05:47:45;15.70;;;11.35;;
24044;SDS011;26257;49.442;8.422;2022-07-23T05:50:11;16.45;;;11.20;;
24044;SDS011;26257;49.442;8.422;2022-07-23T05:52:38;14.40;;;10.93;;
24044;SDS011;26257;49.442;8.422;2022-07-23T05:55:04;13.00;;;10.75;;
24044;SDS011;26257;49.442;8.422;2022-07-23T05:57:31;14.70;;;10.50;;
24044;SDS011;26257;49.442;8.422;2022-07-23T05:59:56;16.38;;;10.05;;
24044;SDS011;26257;49.442;8.422;2022-07-23T06:02:21;15.90;;;10.98;;
24044;SDS011;26257;49.442;8.422;2022-07-23T06:04:47;16.77;;;11.95;;
24044;SDS011;26257;49.442;8.422;2022-07-23T06:07:12;20.08;;;13.52;;
24044;SDS011;26257;49.442;8.422;2022-07-23T06:09:38;16.67;;;12.93;;
24044;SDS011;26257;49.442;8.422;2022-07-23T06:12:03;16.65;;;11.25;;
24044;SDS011;26257;49.442;8.422;2022-07-23T06:14:29;14.38;;;11.13;;
24044;SDS011;26257;49.442;8.422;2022-07-23T06:16:54;16.08;;;11.48;;
24044;SDS011;26257;49.442;8.422;2022-07-23T06:19:20;17.73;;;11.98;;
24044;SDS011;26257;49.442;8.422;2022-07-23T06:21:45;15.68;;;12.05;;
24044;SDS011;26257;49.442;8.422;2022-07-23T06:24:10;15.82;;;12.05;;
24044;SDS011;26257;49.442;8.422;2022-07-23T06:26:36;16.30;;;11.63;;
24044;SDS011;26257;49.442;8.422;2022-07-23T06:29:01;17.30;;;11.88;;
24044;SDS011;26257;49.442;8.422;2022-07-23T06:31:27;12.95;;;10.88;;
24044;SDS011;26257;49.442;8.422;2022-07-23T06:33:52;15.15;;;10.68;;
24044;SDS011;26257;49.442;8.422;2022-07-23T06:36:18;14.80;;;10.90;;
24044;SDS011;26257;49.442;8.422;2022-07-23T06:38:43;16.75;;;11.63;;
24044;SDS011;26257;49.442;8.422;2022-07-23T06:41:09;15.63;;;11.13;;
24044;SDS011;26257;49.442;8.422;2022-07-23T06:43:34;16.40;;;10.57;;
24044;SDS011;26257;49.442;8.422;2022-07-23T06:45:59;13.45;;;10.73;;
24044;SDS011;26257;49.442;8.422;2022-07-23T06:48:25;15.85;;;10.63;;
24044;SDS011;26257;49.442;8.422;2022-07-23T06:50:50;15.73;;;11.65;;
24044;SDS011;26257;49.442;8.422;2022-07-23T06:53:17;14.75;;;10.52;;
24044;SDS011;26257;49.442;8.422;2022-07-23T06:55:43;15.40;;;11.27;;
24044;SDS011;26257;49.442;8.422;2022-07-23T06:58:08;15.85;;;11.93;;
24044;SDS011;26257;49.442;8.422;2022-07-23T07:00:35;17.10;;;12.00;;
24044;SDS011;26257;49.442;8.422;2022-07-23T07:03:01;18.77;;;13.55;;
24044;SDS011;26257;49.442;8.422;2022-07-23T07:05:26;22.80;;;14.68;;
24044;SDS011;26257;49.442;8.422;2022-07-23T07:07:53;25.55;;;18.23;;
24044;SDS011;26257;49.442;8.422;2022-07-23T07:10:21;16.80;;;12.75;;
24044;SDS011;26257;49.442;8.422;2022-07-23T07:12:46;18.58;;;12.18;;
24044;SDS011;26257;49.442;8.422;2022-07-23T07:15:12;16.60;;;12.35;;
24044;SDS011;26257;49.442;8.422;2022-07-23T07:17:37;15.82;;;12.40;;
24044;SDS011;26257;49.442;8.422;2022-07-23T07:20:04;15.95;;;11.13;;
24044;SDS011;26257;49.442;8.422;2022-07-23T07:22:30;16.65;;;11.88;;
24044;SDS011;26257;49.442;8.422;2022-07-23T07:24:56;16.60;;;11.25;;
24044;SDS011;26257;49.442;8.422;2022-07-23T07:27:21;14.80;;;11.93;;
24044;SDS011;26257;49.442;8.422;2022-07-23T07:29:47;16.02;;;11.48;;
24044;SDS011;26257;49.442;8.422;2022-07-23T07:32:12;18.27;;;12.75;;
24044;SDS011;26257;49.442;8.422;2022-07-23T07:34:37;17.88;;;12.25;;
24044;SDS011;26257;49.442;8.422;2022-07-23T07:37:03;17.05;;;12.23;;
24044;SDS011;26257;49.442;8.422;2022-07-23T07:39:28;19.60;;;12.65;;
24044;SDS011;26257;49.442;8.422;2022-07-23T07:41:54;16.88;;;12.65;;
24044;SDS011;26257;49.442;8.422;2022-07-23T07:44:19;16.60;;;11.95;;
24044;SDS011;26257;49.442;8.422;2022-07-23T07:46:45;19.60;;;11.73;;
24044;SDS011;26257;49.442;8.422;2022-07-23T07:49:10;19.25;;;11.98;;
24044;SDS011;26257;49.442;8.422;2022-07-23T07:51:36;16.70;;;12.23;;
24044;SDS011;26257;49.442;8.422;2022-07-23T07:54:01;21.40;;;14.63;;
24044;SDS011;26257;49.442;8.422;2022-07-23T07:56:27;18.73;;;14.45;;
24044;SDS011;26257;49.442;8.422;2022-07-23T07:58:52;19.85;;;13.90;;
24044;SDS011;26257;49.442;8.422;2022-07-23T08:01:18;15.23;;;12.10;;
24044;SDS011;26257;49.442;8.422;2022-07-23T08:03:44;16.90;;;14.07;;
24044;SDS011;26257;49.442;8.422;2022-07-23T08:06:10;16.83;;;13.30;;
24044;SDS011;26257;49.442;8.422;2022-07-23T08:08:36;20.13;;;14.13;;
24044;SDS011;26257;49.442;8.422;2022-07-23T08:11:01;19.77;;;12.35;;
24044;SDS011;26257;49.442;8.422;2022-07-23T08:13:27;18.05;;;13.85;;
24044;SDS011;26257;49.442;8.422;2022-07-23T08:15:52;19.08;;;14.50;;
24044;SDS011;26257;49.442;8.422;2022-07-23T08:18:20;18.45;;;13.88;;
24044;SDS011;26257;49.442;8.422;2022-07-23T08:20:46;18.75;;;14.57;;
24044;SDS011;26257;49.442;8.422;2022-07-23T08:23:11;17.73;;;13.63;;
24044;SDS011;26257;49.442;8.422;2022-07-23T08:25:38;20.17;;;14.63;;
24044;SDS011;26257;49.442;8.422;2022-07-23T08:28:06;18.77;;;14.05;;
24044;SDS011;26257;49.442;8.422;2022-07-23T08:30:36;19.80;;;13.67;;
24044;SDS011;26257;49.442;8.422;2022-07-23T08:33:06;21.88;;;14.55;;
24044;SDS011;26257;49.442;8.422;2022-07-23T08:35:40;19.65;;;13.63;;
24044;SDS011;26257;49.442;8.422;2022-07-23T08:38:08;22.30;;;13.88;;
24044;SDS011;26257;49.442;8.422;2022-07-23T08:40:39;22.35;;;16.83;;
24044;SDS011;26257;49.442;8.422;2022-07-23T08:43:07;21.80;;;15.77;;
24044;SDS011;26257;49.442;8.422;2022-07-23T08:45:38;23.10;;;14.77;;
24044;SDS011;26257;49.442;8.422;2022-07-23T08:48:11;15.70;;;12.90;;
24044;SDS011;26257;49.442;8.422;2022-07-23T08:50:45;20.02;;;13.15;;
24044;SDS011;26257;49.442;8.422;2022-07-23T08:53:12;59.05;;;40.20;;
24044;SDS011;26257;49.442;8.422;2022-07-23T08:55:39;20.67;;;15.32;;
24044;SDS011;26257;49.442;8.422;2022-07-23T08:58:04;16.55;;;12.48;;
24044;SDS011;26257;49.442;8.422;2022-07-23T09:00:31;15.23;;;11.13;;
24044;SDS011;26257;49.442;8.422;2022-07-23T09:02:58;15.60;;;13.02;;
24044;SDS011;26257;49.442;8.422;2022-07-23T09:05:23;18.13;;;11.88;;
24044;SDS011;26257;49.442;8.422;2022-07-23T09:15:57;15.45;;;12.48;;
24044;SDS011;26257;49.442;8.422;2022-07-23T09:18:44;21.73;;;13.10;;
24044;SDS011;26257;49.442;8.422;2022-07-23T09:23:49;19.05;;;13.32;;
24044;SDS011;26257;49.442;8.422;2022-07-23T09:26:29;15.70;;;12.10;;
24044;SDS011;26257;49.442;8.422;2022-07-23T09:29:05;15.23;;;11.73;;
24044;SDS011;26257;49.442;8.422;2022-07-23T09:31:54;14.68;;;11.30;;
24044;SDS011;26257;49.442;8.422;2022-07-23T09:36:47;15.05;;;11.60;;
24044;SDS011;26257;49.442;8.422;2022-07-23T09:39:14;17.02;;;12.25;;
24044;SDS011;26257;49.442;8.422;2022-07-23T09:41:43;16.52;;;12.40;;
24044;SDS011;26257;49.442;8.422;2022-07-23T09:44:19;18.55;;;14.05;;
24044;SDS011;26257;49.442;8.422;2022-07-23T09:46:46;13.50;;;11.05;;
24044;SDS011;26257;49.442;8.422;2022-07-23T09:49:21;22.30;;;14.02;;
24044;SDS011;26257;49.442;8.422;2022-07-23T09:51:58;18.35;;;12.25;;
24044;SDS011;26257;49.442;8.422;2022-07-23T09:54:28;15.45;;;12.18;;
24044;SDS011;26257;49.442;8.422;2022-07-23T10:29:55;14.07;;;10.48;;
24044;SDS011;26257;49.442;8.422;2022-07-23T10:32:41;15.32;;;10.30;;
24044;SDS011;26257;49.442;8.422;2022-07-23T10:37:44;15.55;;;11.77;;
24044;SDS011;26257;49.442;8.422;2022-07-23T10:42:42;16.58;;;11.73;;
24044;SDS011;26257;49.442;8.422;2022-07-23T10:45:24;18.20;;;12.52;;
24044;SDS011;26257;49.442;8.422;2022-07-23T10:47:50;13.75;;;10.65;;
24044;SDS011;26257;49.442;8.422;2022-07-23T10:50:19;12.27;;;9.77;;
24044;SDS011;26257;49.442;8.422;2022-07-23T10:57:57;12.63;;;9.93;;
24044;SDS011;26257;49.442;8.422;2022-07-23T11:00:27;14.80;;;9.95;;
24044;SDS011;26257;49.442;8.422;2022-07-23T11:02:55;12.70;;;9.75;;
24044;SDS011;26257;49.442;8.422;2022-07-23T11:05:24;11.43;;;9.82;;
24044;SDS011;26257;49.442;8.422;2022-07-23T11:10:40;12.15;;;8.95;;
24044;SDS011;26257;49.442;8.422;2022-07-23T11:19:12;13.02;;;9.20;;
24044;SDS011;26257;49.442;8.422;2022-07-23T11:23:58;14.35;;;9.65;;
24044;SDS011;26257;49.442;8.422;2022-07-23T11:34:48;13.48;;;10.35;;
24044;SDS011;26257;49.442;8.422;2022-07-23T11:37:34;11.80;;;9.43;;
24044;SDS011;26257;49.442;8.422;2022-07-23T11:40:03;13.32;;;9.63;;
24044;SDS011;26257;49.442;8.422;2022-07-23T11:42:33;12.60;;;9.65;;
24044;SDS011;26257;49.442;8.422;2022-07-23T11:44:59;12.93;;;9.05;;
24044;SDS011;26257;49.442;8.422;2022-07-23T11:47:25;12.90;;;8.65;;
24044;SDS011;26257;49.442;8.422;2022-07-23T11:50:02;13.50;;;9.70;;
24044;SDS011;26257;49.442;8.422;2022-07-23T11:52:29;9.27;;;8.25;;
24044;SDS011;26257;49.442;8.422;2022-07-23T11:54:55;10.32;;;9.15;;
24044;SDS011;26257;49.442;8.422;2022-07-23T11:57:30;11.02;;;8.68;;
24044;SDS011;26257;49.442;8.422;2022-07-23T11:59:58;12.13;;;9.73;;
24044;SDS011;26257;49.442;8.422;2022-07-23T12:02:36;13.65;;;9.82;;
24044;SDS011;26257;49.442;8.422;2022-07-23T12:05:05;11.60;;;9.70;;
24044;SDS011;26257;49.442;8.422;2022-07-23T12:07:35;11.50;;;8.88;;
24044;SDS011;26257;49.442;8.422;2022-07-23T12:10:05;10.93;;;8.85;;
24044;SDS011;26257;49.442;8.422;2022-07-23T12:12:37;11.45;;;9.38;;
24044;SDS011;26257;49.442;8.422;2022-07-23T12:15:05;12.25;;;9.60;;
24044;SDS011;26257;49.442;8.422;2022-07-23T12:17:33;10.88;;;8.57;;
24044;SDS011;26257;49.442;8.422;2022-07-23T12:20:01;16.00;;;9.27;;
24044;SDS011;26257;49.442;8.422;2022-07-23T12:22:37;12.32;;;8.30;;
24044;SDS011;26257;49.442;8.422;2022-07-23T12:25:10;11.77;;;8.88;;
24044;SDS011;26257;49.442;8.422;2022-07-23T12:27:40;10.88;;;9.35;;
24044;SDS011;26257;49.442;8.422;2022-07-23T12:30:23;14.05;;;10.02;;
24044;SDS011;26257;49.442;8.422;2022-07-23T12:32:51;17.23;;;11.15;;
24044;SDS011;26257;49.442;8.422;2022-07-23T12:35:18;13.35;;;10.02;;
24044;SDS011;26257;49.442;8.422;2022-07-23T12:37:46;11.02;;;8.93;;
24044;SDS011;26257;49.442;8.422;2022-07-23T12:42:59;12.95;;;8.82;;
24044;SDS011;26257;49.442;8.422;2022-07-23T12:45:27;9.82;;;8.40;;
24044;SDS011;26257;49.442;8.422;2022-07-23T12:48:06;10.45;;;9.32;;
24044;SDS011;26257;49.442;8.422;2022-07-23T12:53:16;11.68;;;8.75;;
24044;SDS011;26257;49.442;8.422;2022-07-23T12:55:45;11.32;;;9.98;;
24044;SDS011;26257;49.442;8.422;2022-07-23T12:58:12;14.32;;;11.68;;
24044;SDS011;26257;49.442;8.422;2022-07-23T13:03:22;10.73;;;8.60;;
24044;SDS011;26257;49.442;8.422;2022-07-23T13:05:49;10.73;;;8.45;;
24044;SDS011;26257;49.442;8.422;2022-07-23T13:08:14;12.02;;;9.20;;
24044;SDS011;26257;49.442;8.422;2022-07-23T13:10:40;9.95;;;8.65;;
24044;SDS011;26257;49.442;8.422;2022-07-23T13:13:12;11.80;;;9.77;;
24044;SDS011;26257;49.442;8.422;2022-07-23T13:15:37;12.15;;;9.20;;
24044;SDS011;26257;49.442;8.422;2022-07-23T13:18:03;11.77;;;9.55;;
24044;SDS011;26257;49.442;8.422;2022-07-23T13:20:28;14.27;;;10.02;;
24044;SDS011;26257;49.442;8.422;2022-07-23T13:22:56;11.75;;;9.63;;
24044;SDS011;26257;49.442;8.422;2022-07-23T13:25:22;11.93;;;9.48;;
24044;SDS011;26257;49.442;8.422;2022-07-23T13:27:47;10.70;;;9.20;;
24044;SDS011;26257;49.442;8.422;2022-07-23T13:30:14;11.20;;;8.75;;
24044;SDS011;26257;49.442;8.422;2022-07-23T13:32:40;10.82;;;9.05;;
24044;SDS011;26257;49.442;8.422;2022-07-23T13:35:07;12.00;;;8.95;;
24044;SDS011;26257;49.442;8.422;2022-07-23T13:37:32;11.07;;;9.00;;
24044;SDS011;26257;49.442;8.422;2022-07-23T13:39:57;11.05;;;8.88;;
24044;SDS011;26257;49.442;8.422;2022-07-23T13:42:23;9.90;;;8.60;;
24044;SDS011;26257;49.442;8.422;2022-07-23T13:44:48;11.02;;;8.68;;
24044;SDS011;26257;49.442;8.422;2022-07-23T13:47:14;10.63;;;9.40;;
24044;SDS011;26257;49.442;8.422;2022-07-23T13:49:39;11.18;;;8.77;;
24044;SDS011;26257;49.442;8.422;2022-07-23T13:52:05;10.63;;;8.90;;
24044;SDS011;26257;49.442;8.422;2022-07-23T13:54:31;11.65;;;9.18;;
24044;SDS011;26257;49.442;8.422;2022-07-23T13:56:56;13.73;;;9.02;;
24044;SDS011;26257;49.442;8.422;2022-07-23T13:59:22;14.55;;;9.30;;
24044;SDS011;26257;49.442;8.422;2022-07-23T14:01:48;10.63;;;8.20;;
24044;SDS011;26257;49.442;8.422;2022-07-23T14:04:13;10.68;;;8.75;;
24044;SDS011;26257;49.442;8.422;2022-07-23T14:06:39;11.60;;;9.02;;
24044;SDS011;26257;49.442;8.422;2022-07-23T14:09:12;11.73;;;8.70;;
24044;SDS011;26257;49.442;8.422;2022-07-23T14:11:38;11.07;;;8.75;;
24044;SDS011;26257;49.442;8.422;2022-07-23T14:14:04;10.75;;;9.50;;
24044;SDS011;26257;49.442;8.422;2022-07-23T14:16:30;9.77;;;8.15;;
24044;SDS011;26257;49.442;8.422;2022-07-23T14:18:56;11.15;;;9.13;;
24044;SDS011;26257;49.442;8.422;2022-07-23T14:21:21;10.25;;;8.65;;
24044;SDS011;26257;49.442;8.422;2022-07-23T14:23:48;10.77;;;8.65;;
24044;SDS011;26257;49.442;8.422;2022-07-23T14:26:13;9.98;;;8.43;;
24044;SDS011;26257;49.442;8.422;2022-07-23T14:28:39;10.02;;;8.20;;
24044;SDS011;26257;49.442;8.422;2022-07-23T14:31:04;12.88;;;9.00;;
24044;SDS011;26257;49.442;8.422;2022-07-23T14:33:30;12.55;;;10.52;;
24044;SDS011;26257;49.442;8.422;2022-07-23T14:35:57;10.40;;;8.93;;
24044;SDS011;26257;49.442;8.422;2022-07-23T14:38:24;9.75;;;8.25;;
24044;SDS011;26257;49.442;8.422;2022-07-23T14:40:49;10.80;;;7.97;;
24044;SDS011;26257;49.442;8.422;2022-07-23T14:43:15;9.77;;;8.00;;
24044;SDS011;26257;49.442;8.422;2022-07-23T14:45:40;10.80;;;7.93;;
24044;SDS011;26257;49.442;8.422;2022-07-23T14:48:05;11.38;;;7.80;;
24044;SDS011;26257;49.442;8.422;2022-07-23T14:50:31;12.07;;;7.70;;
24044;SDS011;26257;49.442;8.422;2022-07-23T14:52:59;10.10;;;7.85;;
24044;SDS011;26257;49.442;8.422;2022-07-23T14:55:26;11.30;;;7.80;;
24044;SDS011;26257;49.442;8.422;2022-07-23T14:57:52;12.45;;;9.20;;
24044;SDS011;26257;49.442;8.422;2022-07-23T15:00:17;14.32;;;8.25;;
24044;SDS011;26257;49.442;8.422;2022-07-23T15:02:43;10.05;;;7.60;;
24044;SDS011;26257;49.442;8.422;2022-07-23T15:05:11;11.55;;;8.15;;
24044;SDS011;26257;49.442;8.422;2022-07-23T15:07:37;11.30;;;8.25;;
24044;SDS011;26257;49.442;8.422;2022-07-23T15:10:02;9.38;;;7.60;;
24044;SDS011;26257;49.442;8.422;2022-07-23T15:12:28;12.30;;;8.02;;
24044;SDS011;26257;49.442;8.422;2022-07-23T15:14:53;8.75;;;7.78;;
24044;SDS011;26257;49.442;8.422;2022-07-23T15:17:18;9.70;;;7.47;;
24044;SDS011;26257;49.442;8.422;2022-07-23T15:19:44;21.23;;;18.95;;
24044;SDS011;26257;49.442;8.422;2022-07-23T15:22:09;15.93;;;14.20;;
24044;SDS011;26257;49.442;8.422;2022-07-23T15:24:35;9.45;;;7.45;;
24044;SDS011;26257;49.442;8.422;2022-07-23T15:27:00;11.00;;;7.95;;
24044;SDS011;26257;49.442;8.422;2022-07-23T15:29:26;11.68;;;8.43;;
24044;SDS011;26257;49.442;8.422;2022-07-23T15:31:51;12.13;;;8.45;;
24044;SDS011;26257;49.442;8.422;2022-07-23T15:34:17;12.02;;;8.40;;
24044;SDS011;26257;49.442;8.422;2022-07-23T15:36:43;9.90;;;7.80;;
24044;SDS011;26257;49.442;8.422;2022-07-23T15:39:08;9.77;;;8.07;;
24044;SDS011;26257;49.442;8.422;2022-07-23T15:41:34;10.57;;;8.05;;
24044;SDS011;26257;49.442;8.422;2022-07-23T15:43:59;10.77;;;7.30;;
24044;SDS011;26257;49.442;8.422;2022-07-23T15:46:25;10.27;;;7.80;;
24044;SDS011;26257;49.442;8.422;2022-07-23T15:48:51;12.20;;;8.30;;
24044;SDS011;26257;49.442;8.422;2022-07-23T15:51:16;10.38;;;7.93;;
24044;SDS011;26257;49.442;8.422;2022-07-23T15:53:42;12.48;;;8.23;;
24044;SDS011;26257;49.442;8.422;2022-07-23T16:28:02;11.55;;;9.00;;
24044;SDS011;26257;49.442;8.422;2022-07-23T16:30:27;12.38;;;9.05;;
24044;SDS011;26257;49.442;8.422;2022-07-23T16:32:53;12.88;;;8.13;;
24044;SDS011;26257;49.442;8.422;2022-07-23T16:35:18;17.40;;;13.07;;
24044;SDS011;26257;49.442;8.422;2022-07-23T16:37:44;12.98;;;9.82;;
24044;SDS011;26257;49.442;8.422;2022-07-23T16:40:10;9.45;;;7.85;;
24044;SDS011;26257;49.442;8.422;2022-07-23T16:42:36;11.38;;;7.47;;
24044;SDS011;26257;49.442;8.422;2022-07-23T16:45:02;12.98;;;8.13;;
24044;SDS011;26257;49.442;8.422;2022-07-23T16:47:29;10.23;;;7.90;;
24044;SDS011;26257;49.442;8.422;2022-07-23T16:49:55;9.52;;;7.60;;
24044;SDS011;26257;49.442;8.422;2022-07-23T16:52:21;10.20;;;7.43;;
24044;SDS011;26257;49.442;8.422;2022-07-23T16:54:47;10.15;;;8.20;;
24044;SDS011;26257;49.442;8.422;2022-07-23T16:57:13;12.00;;;7.45;;
24044;SDS011;26257;49.442;8.422;2022-07-23T16:59:39;10.00;;;7.72;;
24044;SDS011;26257;49.442;8.422;2022-07-23T17:02:05;10.02;;;7.07;;
24044;SDS011;26257;49.442;8.422;2022-07-23T17:04:30;10.95;;;7.60;;
24044;SDS011;26257;49.442;8.422;2022-07-23T17:06:56;10.35;;;7.75;;
24044;SDS011;26257;49.442;8.422;2022-07-23T17:09:22;11.25;;;7.50;;
24044;SDS011;26257;49.442;8.422;2022-07-23T17:11:48;10.70;;;7.40;;
24044;SDS011;26257;49.442;8.422;2022-07-23T17:14:14;16.45;;;11.68;;
24044;SDS011;26257;49.442;8.422;2022-07-23T17:16:39;9.32;;;7.35;;